Participated 3 times
Between 1936 and 1938
Paul Egli, Switzerland
Tour de France 2026 starts from Barcelona, Spain in

Stats and Facts from
Tour de France.

2026   2025   2024   2023  2022  2021  2020  2019   2018  2017   2016   2015  2014  2013   2012   2011  2010   2009   2008   2007   2006   2005   2004   2003   2002   2001   2000   1999   1998   1997  1996   1995   1994   1993   1992  1991   1990   1989   1988   1987   1986   1985   1984   1983  1982  1981   1980   1979  1978  1977   1976  1975  1974  1973   1972   1971   1970  1969   1968   1967   1966   1965  1964  1963   1962   1961   1960   1959   1958   1957  1956   1955   1954   1953   1952  1951  1950  1949   1948  1947  1939   1938   1937   1936   1935   1934   1933  1932   1931   1930  1929   1928   1927   1926  1925  1924  1923   1922   1921   1920   1919  1914   1913   1912   1911   1910  1909   1908   1907   1906  1905  1904   1903 

Tourstats
Sitemap

After stage 21 - 2025:
 16451 starters.
  5464 different riders.
  689 teams.
  2398 stages.
  470 restdays.
  466506.50 km.
  5925 abandoned riders.

Click map for 2012 route.
Facts from Tour de France 2012
  |   Stages.  |   Stage winners.  |   Days in jerseys.  |   Teams.  |   All riders.  |   All riders by age.  |   All riders from.  |  

  |   Rookies.  |   Withdrawls.  |   Average speed.  |   GC.  |   Polka  |   Green  |   White  |   Summits. (In tour)  |   Miscellaneous.  |  

Stage 3 on July 3rd. 2012
Pick a stage:  Pro  1  2  3  4  5  6  7  8  9  10  11  12  13  14  15  16  17  18  19  20  

After stage 3:    Fabian Cancellara    Michael Mørkøv    Peter Sagan    Tejay Van Garderen  
  OrchiesBoulogne-sur-Mer | Dist: 197.00km. | Winner: Peter Sagan

Podium
4  Côte de L'Eperche Michael Mørkøvafter132.00 km.

3  Côte de Mont Violette Michael Mørkøvafter163.50 km.

4  Côte de Herquelingue Michael Mørkøvafter181.00 km.

4  Côte de Quéhen Michael Mørkøvafter185.00 km.

3  Côte du Mont Lambert Ivan Bassoafter190.50 km.

4  Boulogne sur Mer Peter Saganafter197.00 km.


Average speed for all riders in stage:  41,106 km./hr.

1
 Peter Sagan  Liquigas-Cannondale04h 42' 58"=41,772  km/h

2
 Edvald Boasson Hagen  Sky Procycling04h 42' 59"+  00:00:01 =41,769  km/h

3
 Peter Velits  Omega Pharma – Quick Step04h 42' 59"+  00:00:01 =41,769  km/h

4  Fabian Cancellara  Radioshack–Nissan04h 42' 59"+  00:00:01 =41,769  km/h

5  Michael Albasini  Orica-GreenEDGE04h 42' 59"+  00:00:01 =41,769  km/h

6  Cadel Evans  BMC04h 42' 59"+  00:00:01 =41,769  km/h

7  Nicolas Roche  AG2R La Mondiale04h 42' 59"+  00:00:01 =41,769  km/h

8  Samuel Sanchez  Euskaltel-Euskadi04h 42' 59"+  00:00:01 =41,769  km/h

9  Bauke Mollema  Rabobank04h 42' 59"+  00:00:01 =41,769  km/h

10  Vincenzo Nibali  Liquigas-Cannondale04h 42' 59"+  00:00:01 =41,769  km/h

11  Ryder Hesjedal  Garmin-Sharp-Barracuda04h 42' 59"+  00:00:01 =41,769  km/h

12  Wout Poels  Vacansoleil-DCM04h 42' 59"+  00:00:01 =41,769  km/h

13  Andréas  Klöden  Radioshack–Nissan04h 42' 59"+  00:00:01 =41,769  km/h

14  Robert Kišerlovski  Astana Pro Team04h 42' 59"+  00:00:01 =41,769  km/h

15  Jelle Vanendert  Lotto-Belisol04h 42' 59"+  00:00:01 =41,769  km/h

16  Tejay Van Garderen  BMC04h 42' 59"+  00:00:01 =41,769  km/h

17  Janez Brajkovič  Astana Pro Team04h 42' 59"+  00:00:01 =41,769  km/h

18  Robert Gesink  Rabobank04h 42' 59"+  00:00:01 =41,769  km/h

19  Maxime Monfort  Radioshack–Nissan04h 42' 59"+  00:00:01 =41,769  km/h

20  Fränk Schleck  Radioshack–Nissan04h 42' 59"+  00:00:01 =41,769  km/h

21  Gorka Izagirre  Euskaltel-Euskadi04h 42' 59"+  00:00:01 =41,769  km/h

22  Pierre Rolland  Europcar04h 42' 59"+  00:00:01 =41,769  km/h

23  Alejandro Valverde  Movistar04h 42' 59"+  00:00:01 =41,769  km/h

24  Rémy Di Grégorio  Cofidis Le Credit En Ligne04h 42' 59"+  00:00:01 =41,769  km/h

25  Jurgen Van Den Broeck  Lotto-Belisol04h 42' 59"+  00:00:01 =41,769  km/h

26  Thibaut Pinot  FDJ – Big Mat04h 42' 59"+  00:00:01 =41,769  km/h

27  Steven Kruijswijk  Rabobank04h 42' 59"+  00:00:01 =41,769  km/h

28  Egoi Martínez  Euskaltel-Euskadi04h 42' 59"+  00:00:01 =41,769  km/h

29  Pierrick  Fédrigo  FDJ – Big Mat04h 42' 59"+  00:00:01 =41,769  km/h

30  Óscar Freire  Katusha04h 42' 59"+  00:00:01 =41,769  km/h

31  Ivan Basso  Liquigas-Cannondale04h 42' 59"+  00:00:01 =41,769  km/h

32  Haimar  Zubeldía  Radioshack–Nissan04h 42' 59"+  00:00:01 =41,769  km/h

33  Rafael Valls Ferri  Vacansoleil-DCM04h 42' 59"+  00:00:01 =41,769  km/h

34  Mikel Astarloza  Euskaltel-Euskadi04h 42' 59"+  00:00:01 =41,769  km/h

35  Levi Leipheimer  Omega Pharma – Quick Step04h 42' 59"+  00:00:01 =41,769  km/h

36  Luis Angel Mate  Cofidis Le Credit En Ligne04h 42' 59"+  00:00:01 =41,769  km/h

37  Jean-Christophe Peraud  AG2R La Mondiale04h 42' 59"+  00:00:01 =41,769  km/h

38  André Greipel  Lotto-Belisol04h 42' 59"+  00:00:01 =41,769  km/h

39  Yukiya  Arashiro  Europcar04h 42' 59"+  00:00:01 =41,769  km/h

40  Fredrik Kessiakoff  Astana Pro Team04h 42' 59"+  00:00:01 =41,769  km/h

41  Sylvain Chavanel  Omega Pharma – Quick Step04h 42' 59"+  00:00:01 =41,769  km/h

42  Dries Devenyns  Omega Pharma – Quick Step04h 42' 59"+  00:00:01 =41,769  km/h

43  Kris Boeckmans  Vacansoleil-DCM04h 42' 59"+  00:00:01 =41,769  km/h

44  Baden Cooke  Orica-GreenEDGE04h 42' 59"+  00:00:01 =41,769  km/h

45  Andriy Grivko  Astana Pro Team04h 42' 59"+  00:00:01 =41,769  km/h

46  Rui Costa  Movistar04h 42' 59"+  00:00:01 =41,769  km/h

47  Nick Nuyens  Saxo Bank-Tinkoff Bank04h 42' 59"+  00:00:01 =41,769  km/h

48  Marcus Burghardt  BMC04h 42' 59"+  00:00:01 =41,769  km/h

49  Michael Rogers  Sky Procycling04h 42' 59"+  00:00:01 =41,769  km/h

50  Michele Scarponi  Lampre-ISD04h 42' 59"+  00:00:01 =41,769  km/h

51  Bradley Wiggins  Sky Procycling04h 42' 59"+  00:00:01 =41,769  km/h

52  Gregory Henderson  Lotto-Belisol04h 42' 59"+  00:00:01 =41,769  km/h

53  Jérôme Coppel  Saur-Sojasun04h 42' 59"+  00:00:01 =41,769  km/h

54  Christopher Horner  Radioshack–Nissan04h 42' 59"+  00:00:01 =41,769  km/h

55  Rein Taaramäe  Cofidis Le Credit En Ligne04h 42' 59"+  00:00:01 =41,769  km/h

56  Andrey Kashechkin  Astana Pro Team04h 42' 59"+  00:00:01 =41,769  km/h

57  George Hincapie  BMC04h 42' 59"+  00:00:01 =41,769  km/h

58  Rob Ruijgh  Vacansoleil-DCM04h 42' 59"+  00:00:01 =41,769  km/h

59  Marco Marcato  Vacansoleil-DCM04h 42' 59"+  00:00:01 =41,769  km/h

60  Laurens Ten Dam  Rabobank04h 42' 59"+  00:00:01 =41,769  km/h

61  Kevin De Weert  Omega Pharma – Quick Step04h 42' 59"+  00:00:01 =41,769  km/h

62  Denis Menchov  Katusha04h 42' 59"+  00:00:01 =41,769  km/h

63  Eduard Vorganov  Katusha04h 42' 59"+  00:00:01 =41,769  km/h

64  Chris Froome  Sky Procycling04h 42' 59"+  00:00:01 =41,769  km/h

65  Michael Schär  BMC04h 42' 59"+  00:00:01 =41,769  km/h

66  Sandy Casar  FDJ – Big Mat04h 43' 45"+  00:00:47 =41,656  km/h

67  Tony Gallopin  Radioshack–Nissan04h 43' 45"+  00:00:47 =41,656  km/h

68  Alexandre Vinokourov  Astana Pro Team04h 43' 56"+  00:00:58 =41,629  km/h

69  Sylwester Szmyd  Liquigas-Cannondale04h 44' 13"+  00:01:15 =41,588  km/h

70  Vladimir Gusev  Katusha04h 44' 16"+  00:01:18 =41,581  km/h

71  Nicki Sørensen  Saxo Bank-Tinkoff Bank04h 44' 29"+  00:01:31 =41,549  km/h

72  Federico Canuti  Liquigas-Cannondale04h 44' 29"+  00:01:31 =41,549  km/h

73  Davide Malacarne  Europcar04h 44' 31"+  00:01:33 =41,544  km/h

74  Bram Tankink  Rabobank04h 44' 31"+  00:01:33 =41,544  km/h

75  Daryl Impey  Orica-GreenEDGE04h 45' 00"+  00:02:02 =41,474  km/h

76  Christian Vandevelde  Garmin-Sharp-Barracuda04h 45' 06"+  00:02:08 =41,459  km/h

77  Chris Anker Sørensen  Saxo Bank-Tinkoff Bank04h 45' 06"+  00:02:08 =41,459  km/h

78  Hubert Dupont  AG2R La Mondiale04h 45' 06"+  00:02:08 =41,459  km/h

79  Richie Porte  Sky Procycling04h 45' 06"+  00:02:08 =41,459  km/h

80  Christophe Riblon  AG2R La Mondiale04h 45' 06"+  00:02:08 =41,459  km/h

81  Amets Txurruka  Euskaltel-Euskadi04h 45' 06"+  00:02:08 =41,459  km/h

82  Fabrice Jeandesboz  Saur-Sojasun04h 45' 06"+  00:02:08 =41,459  km/h

83  Guillaume Levarlet  Saur-Sojasun04h 45' 06"+  00:02:08 =41,459  km/h

84  Martin Velits  Omega Pharma – Quick Step04h 45' 15"+  00:02:17 =41,437  km/h

85  Maxim Iglinskiy  Astana Pro Team04h 45' 16"+  00:02:18 =41,435  km/h

86  Johannes Fröhlinger  Argos–Shimano04h 45' 30"+  00:02:32 =41,401  km/h

87  José Ivan Gutierrez  Movistar04h 45' 38"+  00:02:40 =41,382  km/h

88  Alessandro Vanotti  Liquigas-Cannondale04h 45' 42"+  00:02:44 =41,372  km/h

89  Lars Bak  Lotto-Belisol04h 46' 24"+  00:03:26 =41,271  km/h

90  Marcel Sieberg  Lotto-Belisol04h 46' 30"+  00:03:32 =41,257  km/h

91  Jürgen Roelandts  Lotto-Belisol04h 46' 31"+  00:03:33 =41,254  km/h

92  Bernhard Eisel  Sky Procycling04h 46' 36"+  00:03:38 =41,242  km/h

93  Kristjan Koren  Liquigas-Cannondale04h 46' 52"+  00:03:54 =41,204  km/h

94  Pieter Weening  Orica-GreenEDGE04h 46' 52"+  00:03:54 =41,204  km/h

95  Stuart O'Grady  Orica-GreenEDGE04h 46' 52"+  00:03:54 =41,204  km/h

96  Matthew Goss  Orica-GreenEDGE04h 46' 52"+  00:03:54 =41,204  km/h

97  Rubén Plaza  Movistar04h 46' 52"+  00:03:54 =41,204  km/h

98  Aliaksandr Kuchynski  Katusha04h 46' 52"+  00:03:54 =41,204  km/h

99  Ruben Perez  Euskaltel-Euskadi04h 46' 52"+  00:03:54 =41,204  km/h

100  Yury  Trofimov  Katusha04h 46' 52"+  00:03:54 =41,204  km/h

101  Joan Horrach  Katusha04h 46' 52"+  00:03:54 =41,204  km/h

102  Davide Vigano  Lampre-ISD04h 46' 52"+  00:03:54 =41,204  km/h

103  Yaroslav Popovych  Radioshack–Nissan04h 46' 59"+  00:04:01 =41,187  km/h

104  Luca Paolini  Katusha04h 47' 08"+  00:04:10 =41,166  km/h

105  Dan Martin  Garmin-Sharp-Barracuda04h 48' 03"+  00:05:05 =41,035  km/h

106  Jens Voigt  Radioshack–Nissan04h 48' 25"+  00:05:27 =40,982  km/h

107  Michael Mørkøv  Saxo Bank-Tinkoff Bank04h 48' 25"+  00:05:27 =40,982  km/h

108  Amaël Moinard  BMC04h 48' 25"+  00:05:27 =40,982  km/h

109  Arthur Vichot  FDJ – Big Mat04h 48' 25"+  00:05:27 =40,982  km/h

110  Manuel Quinziato  BMC04h 49' 40"+  00:06:42 =40,806  km/h

111  Koen De Kort  Argos–Shimano04h 50' 01"+  00:07:03 =40,756  km/h

112  Jorge Azanza  Euskaltel-Euskadi04h 50' 01"+  00:07:03 =40,756  km/h

113  Imanol Erviti  Movistar04h 50' 01"+  00:07:03 =40,756  km/h

114  Romain Zingle  Cofidis Le Credit En Ligne04h 50' 01"+  00:07:03 =40,756  km/h

115  Adam Hansen  Lotto-Belisol04h 50' 15"+  00:07:17 =40,724  km/h

116  Cyril Lemoine  Saur-Sojasun04h 50' 17"+  00:07:19 =40,719  km/h

117  Jean-Marc Marino  Saur-Sojasun04h 50' 17"+  00:07:19 =40,719  km/h

118  Juan José Haedo  Saxo Bank-Tinkoff Bank04h 50' 17"+  00:07:19 =40,719  km/h

119  Francis De Greef  Lotto-Belisol04h 50' 25"+  00:07:27 =40,700  km/h

120  Mikaël Cherel  AG2R La Mondiale04h 50' 25"+  00:07:27 =40,700  km/h

121  Kenny van Hummel  Vacansoleil-DCM04h 50' 25"+  00:07:27 =40,700  km/h

122  Anthony Delaplace  Saur-Sojasun04h 50' 25"+  00:07:27 =40,700  km/h

123  Lieuwe Westra  Vacansoleil-DCM04h 50' 25"+  00:07:27 =40,700  km/h

124  Julien Fouchard  Cofidis Le Credit En Ligne04h 50' 25"+  00:07:27 =40,700  km/h

125  Anthony Roux  FDJ – Big Mat04h 50' 25"+  00:07:27 =40,700  km/h

126  Marco Marzano  Lampre-ISD04h 50' 25"+  00:07:27 =40,700  km/h

127  Maxime Bouet  AG2R La Mondiale04h 50' 25"+  00:07:27 =40,700  km/h

128  Matthieu Ladagnous  FDJ – Big Mat04h 50' 25"+  00:07:27 =40,700  km/h

129  Blel Kadri  AG2R La Mondiale04h 50' 25"+  00:07:27 =40,700  km/h

130  Nicolas Edet  Cofidis Le Credit En Ligne04h 50' 25"+  00:07:27 =40,700  km/h

131  Danilo Hondo  Lampre-ISD04h 50' 25"+  00:07:27 =40,700  km/h

132  Jérémy Roy  FDJ – Big Mat04h 50' 25"+  00:07:27 =40,700  km/h

133  Julien Simon  Saur-Sojasun04h 50' 25"+  00:07:27 =40,700  km/h

134  Bert Grabsch  Omega Pharma – Quick Step04h 50' 25"+  00:07:27 =40,700  km/h

135  Yuriy Krivtsov  Lampre-ISD04h 50' 25"+  00:07:27 =40,700  km/h

136  Yauheni Hutarovich  FDJ – Big Mat04h 50' 25"+  00:07:27 =40,700  km/h

137  Dimitiri Fofonov  Astana Pro Team04h 50' 25"+  00:07:27 =40,700  km/h

138  Sébastien Hinault  AG2R La Mondiale04h 50' 25"+  00:07:27 =40,700  km/h

139  Alessandro Petacchi  Lampre-ISD04h 50' 25"+  00:07:27 =40,700  km/h

140  Sébastien Minard  AG2R La Mondiale04h 50' 25"+  00:07:27 =40,700  km/h

141  Matthew Lloyd  Lampre-ISD04h 50' 25"+  00:07:27 =40,700  km/h

142  Dominik Nerz  Liquigas-Cannondale04h 50' 25"+  00:07:27 =40,700  km/h

143  Cédric Pineau  FDJ – Big Mat04h 50' 25"+  00:07:27 =40,700  km/h

144  Giovanni Bernaudeau  Europcar04h 50' 25"+  00:07:27 =40,700  km/h

145  Grega Bole  Lampre-ISD04h 50' 25"+  00:07:27 =40,700  km/h

146  Anders Lund  Saxo Bank-Tinkoff Bank04h 50' 25"+  00:07:27 =40,700  km/h

147  Sérgio Paulinho  Saxo Bank-Tinkoff Bank04h 50' 25"+  00:07:27 =40,700  km/h

148  Thomas  Voeckler  Europcar04h 50' 25"+  00:07:27 =40,700  km/h

149  Cyril Gautier  Europcar04h 50' 25"+  00:07:27 =40,700  km/h

150  Vincent Jérôme  Europcar04h 50' 25"+  00:07:27 =40,700  km/h

151  Maarten Wynants  Rabobank04h 50' 25"+  00:07:27 =40,700  km/h

152  Gorka Verdugo  Euskaltel-Euskadi04h 50' 25"+  00:07:27 =40,700  km/h

153  Mark Cavendish  Sky Procycling04h 50' 25"+  00:07:27 =40,700  km/h

154  Johnny Hoogerland  Vacansoleil-DCM04h 50' 25"+  00:07:27 =40,700  km/h

155  Jonathan Cantwell  Saxo Bank-Tinkoff Bank04h 50' 25"+  00:07:27 =40,700  km/h

156  Mark Renshaw  Rabobank04h 50' 25"+  00:07:27 =40,700  km/h

157  Vladimir Karpets  Movistar04h 50' 25"+  00:07:27 =40,700  km/h

158  Gustav-Erik Larsson  Vacansoleil-DCM04h 50' 25"+  00:07:27 =40,700  km/h

159  Jan Ghyselinck  Cofidis Le Credit En Ligne04h 50' 25"+  00:07:27 =40,700  km/h

160  David Moncoutié  Cofidis Le Credit En Ligne04h 50' 25"+  00:07:27 =40,700  km/h

161  Matthieu Sprick  Argos–Shimano04h 50' 25"+  00:07:27 =40,700  km/h

162  Yohann Gène  Europcar04h 50' 25"+  00:07:27 =40,700  km/h

163  Christophe Kern  Europcar04h 50' 25"+  00:07:27 =40,700  km/h

164  Yann Huguet  Argos–Shimano04h 50' 25"+  00:07:27 =40,700  km/h

165  Samuel Dumoulin  Cofidis Le Credit En Ligne04h 50' 25"+  00:07:27 =40,700  km/h

166  Stephen Cummings  BMC04h 50' 25"+  00:07:27 =40,700  km/h

167  Christian Knees  Sky Procycling04h 50' 40"+  00:07:42 =40,665  km/h

168  Philippe Gilbert  BMC04h 50' 44"+  00:07:46 =40,656  km/h

169  Vasil Kiryienka  Movistar04h 50' 50"+  00:07:52 =40,642  km/h

170  Daniel Oss  Liquigas-Cannondale04h 50' 52"+  00:07:54 =40,637  km/h

171  David Millar  Garmin-Sharp-Barracuda04h 51' 00"+  00:08:02 =40,619  km/h

172  Tyler Farrar  Garmin-Sharp-Barracuda04h 51' 58"+  00:09:00 =40,484  km/h

173  Robert Hunter  Garmin-Sharp-Barracuda04h 51' 58"+  00:09:00 =40,484  km/h

174  David Zabriskie  Garmin-Sharp-Barracuda04h 51' 58"+  00:09:00 =40,484  km/h

175  Tom Danielson  Garmin-Sharp-Barracuda04h 52' 09"+  00:09:11 =40,459  km/h

176  Borut Božič  Astana Pro Team04h 52' 28"+  00:09:30 =40,415  km/h

177  Tony Martin  Omega Pharma – Quick Step04h 53' 35"+  00:10:37 =40,261  km/h

178  Brett Lancaster  Orica-GreenEDGE04h 53' 35"+  00:10:37 =40,261  km/h

179  Johan Vansummeren  Garmin-Sharp-Barracuda04h 53' 35"+  00:10:37 =40,261  km/h

180  Juan José Cobo  Movistar04h 53' 35"+  00:10:37 =40,261  km/h

181  Simon Gerrans  Orica-GreenEDGE04h 53' 35"+  00:10:37 =40,261  km/h

182  Sebastian Langeveld  Orica-GreenEDGE04h 53' 35"+  00:10:37 =40,261  km/h

183  Karsten Kroon  Saxo Bank-Tinkoff Bank04h 53' 35"+  00:10:37 =40,261  km/h

184  Maarten Tjallingii  Rabobank04h 53' 35"+  00:10:37 =40,261  km/h

185  Luis León Sánchez  Rabobank04h 53' 35"+  00:10:37 =40,261  km/h

186  Jérôme Pineau  Omega Pharma – Quick Step04h 53' 35"+  00:10:37 =40,261  km/h

187  Tom Veelers  Argos–Shimano04h 53' 35"+  00:10:37 =40,261  km/h

188  Jimmy Engoulvent  Saur-Sojasun04h 53' 35"+  00:10:37 =40,261  km/h

189  Giampaolo Caruso  Katusha04h 59' 24"+  00:16:26 =39,479  km/h

190  Simone Stortoni  Lampre-ISD04h 59' 24"+  00:16:26 =39,479  km/h

191  Pablo Urtasun  Euskaltel-Euskadi04h 59' 24"+  00:16:26 =39,479  km/h

192  Patrick Gretsch  Argos–Shimano04h 59' 27"+  00:16:29 =39,472  km/h

193  Roy Curvers  Argos–Shimano04h 59' 27"+  00:16:29 =39,472  km/h

194  Albert Timmer  Argos–Shimano04h 59' 27"+  00:16:29 =39,472  km/h

195  Marcel Kittel  Argos–Shimano04h 59' 27"+  00:16:29 =39,472  km/h

196  Brice Feillu  Saur-Sojasun04h 59' 27"+  00:16:29 =39,472  km/h


Withdrawls: 2
 RiderTeamReason
109   Kanstantsin Sivtsov Sky ProcyclingDid not finish
169   José Joaquin Rojas MovistarDid not finish
Todays birthdays.

1884 • Vincenzo Borgarello
1889 • Emile Bonnefoi
1889 • Auguste Denizot
1890 • Maurice Petit
1904 • Pierino Ferioli
1905 • Vincent Carrara
1910 • Antoon Van Schendel
1925 • Georges Meunier
1945 • Gérard Besnard
1950 • Wim Kelleners
1960 • Ivan Ivanov
1960 • Pierre-Henri Menthéour
1962 • Giovanni Bottoia
1964 • Flavio Giupponi
1974 • Benoit Salmon
1977 • Iñigo Landaluze
1977 • Svein Tuft
1979 • Rubens Bertogliati
1985 • Matthew Busche

 

Optimized for Chrome - Edge
and Opera browsers.